createdAt,value
2019-02-14T00:00:40.470Z,7.20
2019-02-14T00:03:06.977Z,6.83
2019-02-14T00:05:33.393Z,6.33
2019-02-14T00:07:59.869Z,7.20
2019-02-14T00:10:26.166Z,6.80
2019-02-14T00:12:52.564Z,7.17
2019-02-14T00:15:18.971Z,6.87
2019-02-14T00:17:45.631Z,6.67
2019-02-14T00:20:12.146Z,6.57
2019-02-14T00:22:38.570Z,6.50
2019-02-14T00:25:05.766Z,6.43
2019-02-14T00:27:32.300Z,7.00
2019-02-14T00:29:58.674Z,6.87
2019-02-14T00:32:25.333Z,6.87
2019-02-14T00:34:51.800Z,7.70
2019-02-14T00:37:18.182Z,6.87
2019-02-14T00:39:44.466Z,7.20
2019-02-14T00:42:10.845Z,7.03
2019-02-14T00:44:37.273Z,7.10
2019-02-14T00:47:03.753Z,6.73
2019-02-14T00:49:30.170Z,7.23
2019-02-14T00:51:56.460Z,7.10
2019-02-14T00:54:23.112Z,7.53
2019-02-14T00:56:49.604Z,9.80
2019-02-14T00:59:15.896Z,6.47
2019-02-14T01:01:42.390Z,6.80
2019-02-14T01:04:09.022Z,6.10
2019-02-14T01:06:35.520Z,6.00
2019-02-14T01:09:02.185Z,6.13
2019-02-14T01:11:28.586Z,6.87
2019-02-14T01:13:55.014Z,6.27
2019-02-14T01:16:21.516Z,6.63
2019-02-14T01:18:47.901Z,6.13
2019-02-14T01:21:14.342Z,6.60
2019-02-14T01:23:40.618Z,7.10
2019-02-14T01:26:06.978Z,6.03
2019-02-14T01:28:33.299Z,7.30
2019-02-14T01:30:59.720Z,7.07
2019-02-14T01:33:26.258Z,6.10
2019-02-14T01:35:52.784Z,6.57
2019-02-14T01:38:19.171Z,6.83
2019-02-14T01:40:45.609Z,5.87
2019-02-14T01:43:11.889Z,5.97
2019-02-14T01:45:38.265Z,6.30
2019-02-14T01:48:04.685Z,6.90
2019-02-14T01:50:31.252Z,5.70
2019-02-14T01:52:57.632Z,5.63
2019-02-14T01:55:24.052Z,6.10
2019-02-14T01:57:50.397Z,6.00
2019-02-14T02:00:16.902Z,5.63
2019-02-14T02:02:43.484Z,6.27
2019-02-14T02:05:09.936Z,5.87
2019-02-14T02:07:36.476Z,5.53
2019-02-14T02:10:07.177Z,5.63
2019-02-14T02:12:33.495Z,5.93
2019-02-14T02:14:59.929Z,5.33
2019-02-14T02:17:26.835Z,5.20
2019-02-14T02:19:53.097Z,5.90
2019-02-14T02:22:19.732Z,5.80
2019-02-14T02:24:46.122Z,6.20
2019-02-14T02:27:12.806Z,5.33
2019-02-14T02:29:39.195Z,5.87
2019-02-14T02:32:05.702Z,5.80
2019-02-14T02:34:32.089Z,5.77
2019-02-14T02:36:58.408Z,5.07
2019-02-14T02:39:24.843Z,5.73
2019-02-14T02:41:51.160Z,5.73
2019-02-14T02:44:17.430Z,5.70
2019-02-14T02:46:43.942Z,5.90
2019-02-14T02:49:10.371Z,5.70
2019-02-14T02:51:36.774Z,6.03
2019-02-14T02:54:03.398Z,5.60
2019-02-14T02:56:29.780Z,6.13
2019-02-14T02:58:56.101Z,5.87
2019-02-14T03:01:22.545Z,5.60
2019-02-14T03:03:48.941Z,5.63
2019-02-14T03:06:15.307Z,5.67
2019-02-14T03:08:41.699Z,6.40
2019-02-14T03:11:07.976Z,5.83
2019-02-14T03:13:34.652Z,5.97
2019-02-14T03:16:00.951Z,5.50
2019-02-14T03:18:27.617Z,5.73
2019-02-14T03:20:53.968Z,5.63
2019-02-14T03:23:20.282Z,6.23
2019-02-14T03:25:46.800Z,6.37
2019-02-14T03:28:13.393Z,5.77
2019-02-14T03:30:40.148Z,5.33
2019-02-14T03:33:06.440Z,5.17
2019-02-14T03:35:32.882Z,5.40
2019-02-14T03:37:59.286Z,6.07
2019-02-14T03:40:25.724Z,5.80
2019-02-14T03:42:53.953Z,5.93
2019-02-14T03:45:20.634Z,5.73
2019-02-14T03:47:46.917Z,5.70
2019-02-14T03:50:13.464Z,5.37
2019-02-14T03:52:39.865Z,5.40
2019-02-14T03:55:08.682Z,5.90
2019-02-14T03:57:35.080Z,5.60
2019-02-14T04:00:01.782Z,5.53
2019-02-14T04:02:28.291Z,5.30
2019-02-14T04:04:54.820Z,5.97
2019-02-14T04:07:21.147Z,5.80
2019-02-14T04:09:47.881Z,5.60
2019-02-14T04:12:14.195Z,5.63
2019-02-14T04:14:40.770Z,5.57
2019-02-14T04:17:07.123Z,5.23
2019-02-14T04:19:33.601Z,5.37
2019-02-14T04:22:00.010Z,5.67
2019-02-14T04:24:26.276Z,5.77
2019-02-14T04:26:52.697Z,6.03
2019-02-14T04:29:19.106Z,6.33
2019-02-14T04:31:45.437Z,5.63
2019-02-14T04:34:11.748Z,6.00
2019-02-14T04:36:38.200Z,5.33
2019-02-14T04:39:05.586Z,5.97
2019-02-14T04:41:31.916Z,5.70
2019-02-14T04:43:58.331Z,6.20
2019-02-14T04:46:24.914Z,6.50
2019-02-14T04:48:51.446Z,6.63
2019-02-14T04:51:17.891Z,5.60
2019-02-14T04:53:44.304Z,7.33
2019-02-14T04:56:10.840Z,7.23
2019-02-14T04:58:37.391Z,6.60
2019-02-14T05:01:04.628Z,5.80
2019-02-14T05:03:31.265Z,5.50
2019-02-14T05:05:57.562Z,5.73
2019-02-14T05:08:24.085Z,5.93
2019-02-14T05:10:50.531Z,5.63
2019-02-14T05:13:17.000Z,5.73
2019-02-14T05:15:43.268Z,5.53
2019-02-14T05:18:09.692Z,5.33
2019-02-14T05:20:36.080Z,4.90
2019-02-14T05:23:02.502Z,5.30
2019-02-14T05:25:28.792Z,5.50
2019-02-14T05:27:55.089Z,5.27
2019-02-14T05:30:21.591Z,5.30
2019-02-14T05:32:47.981Z,5.10
2019-02-14T05:35:14.300Z,6.40
2019-02-14T05:37:40.775Z,5.43
2019-02-14T05:40:09.614Z,7.70
2019-02-14T05:42:36.601Z,35.17
2019-02-14T05:45:09.716Z,39.37
2019-02-14T05:47:36.101Z,9.70
2019-02-14T05:50:06.299Z,6.77
2019-02-14T05:52:32.785Z,6.53
2019-02-14T05:54:59.064Z,7.37
2019-02-14T05:57:25.338Z,5.83
2019-02-14T05:59:51.747Z,6.13
2019-02-14T06:02:18.918Z,6.13
2019-02-14T06:04:45.248Z,6.07
2019-02-14T06:07:11.626Z,6.10
2019-02-14T06:09:38.092Z,6.00
2019-02-14T06:12:04.500Z,6.60
2019-02-14T06:14:30.981Z,6.63
2019-02-14T06:16:57.325Z,6.43
2019-02-14T06:19:23.745Z,7.60
2019-02-14T06:21:50.057Z,6.63
2019-02-14T06:24:16.526Z,6.73
2019-02-14T06:26:42.790Z,6.93
2019-02-14T06:29:09.116Z,6.33
2019-02-14T06:31:35.633Z,6.03
2019-02-14T06:34:02.057Z,6.50
2019-02-14T06:36:28.452Z,5.60
2019-02-14T06:38:54.980Z,6.23
2019-02-14T06:41:21.376Z,5.57
2019-02-14T06:43:47.938Z,6.83
2019-02-14T06:46:14.298Z,6.93
2019-02-14T06:48:40.815Z,6.10
2019-02-14T06:51:07.434Z,6.60
2019-02-14T06:53:33.854Z,6.03
2019-02-14T06:56:00.168Z,5.97
2019-02-14T06:58:26.478Z,6.70
2019-02-14T07:00:53.510Z,6.70
2019-02-14T07:03:19.827Z,6.80
2019-02-14T07:05:46.126Z,7.10
2019-02-14T07:08:12.472Z,6.10
2019-02-14T07:10:39.006Z,7.00
2019-02-14T07:13:05.511Z,6.90
2019-02-14T07:15:31.981Z,6.37
2019-02-14T07:17:58.309Z,8.20
2019-02-14T07:20:24.919Z,7.50
2019-02-14T07:22:51.241Z,6.13
2019-02-14T07:25:17.656Z,6.90
2019-02-14T07:27:44.071Z,6.90
2019-02-14T07:30:26.206Z,6.80
2019-02-14T07:32:52.627Z,6.97
2019-02-14T07:35:19.316Z,6.33
2019-02-14T07:37:45.996Z,6.87
2019-02-14T07:40:13.589Z,6.53
2019-02-14T07:42:40.289Z,6.47
2019-02-14T07:45:13.996Z,6.87
2019-02-14T07:47:40.417Z,6.77
2019-02-14T07:50:11.115Z,7.40
2019-02-14T07:52:37.643Z,7.00
2019-02-14T07:55:10.012Z,6.73
2019-02-14T07:57:36.696Z,6.83
2019-02-14T08:00:13.329Z,7.37
2019-02-14T08:02:39.907Z,8.07
2019-02-14T08:05:08.061Z,7.23
2019-02-14T08:07:36.183Z,6.63
2019-02-14T08:10:09.215Z,6.90
2019-02-14T08:12:35.499Z,7.30
2019-02-14T08:15:02.011Z,16.23
2019-02-14T08:17:28.434Z,84.73
2019-02-14T08:19:54.924Z,64.67
2019-02-14T08:22:21.196Z,24.03
2019-02-14T08:24:48.995Z,9.93
2019-02-14T08:27:15.422Z,8.13
2019-02-14T08:29:42.326Z,8.30
2019-02-14T08:32:08.795Z,7.87
2019-02-14T08:34:35.365Z,8.33
2019-02-14T08:37:01.657Z,8.10
2019-02-14T08:39:28.199Z,8.20
2019-02-14T08:41:54.709Z,8.03
2019-02-14T08:44:21.021Z,7.63
2019-02-14T08:46:47.531Z,7.90
2019-02-14T08:49:14.182Z,8.23
2019-02-14T08:51:40.837Z,8.53
2019-02-14T08:54:07.130Z,26.57
2019-02-14T08:56:33.567Z,18.80
2019-02-14T08:59:00.086Z,15.10
2019-02-14T09:01:26.485Z,9.10
2019-02-14T09:03:53.089Z,7.73
2019-02-14T09:06:19.600Z,7.03
2019-02-14T09:08:46.162Z,6.63
2019-02-14T09:11:12.653Z,7.17
2019-02-14T09:13:39.167Z,6.83
2019-02-14T09:16:05.631Z,7.67
2019-02-14T09:18:32.102Z,15.93
2019-02-14T09:20:58.718Z,10.07
2019-02-14T09:23:25.228Z,7.23
2019-02-14T09:25:51.712Z,6.63
2019-02-14T09:28:18.119Z,6.93
2019-02-14T09:30:44.542Z,7.20
2019-02-14T09:33:11.361Z,6.50
2019-02-14T09:35:37.921Z,6.67
2019-02-14T09:38:04.213Z,6.40
2019-02-14T09:40:30.837Z,7.20
2019-02-14T09:42:57.291Z,6.60
2019-02-14T09:45:23.599Z,5.70
2019-02-14T09:47:50.011Z,6.50
2019-02-14T09:50:16.600Z,6.07
2019-02-14T09:52:43.457Z,5.27
2019-02-14T09:55:13.772Z,32.83
2019-02-14T09:57:40.396Z,18.37
2019-02-14T10:00:12.445Z,10.73
2019-02-14T10:02:38.918Z,7.23
2019-02-14T10:05:07.521Z,6.20
2019-02-14T10:07:34.041Z,5.63
2019-02-14T10:10:00.553Z,5.37
2019-02-14T10:12:27.015Z,5.23
2019-02-14T10:14:53.530Z,4.90
2019-02-14T10:17:22.195Z,4.77
2019-02-14T10:19:48.316Z,5.60
2019-02-14T10:22:14.871Z,5.83
2019-02-14T10:24:41.297Z,5.90
2019-02-14T10:27:07.666Z,5.37
2019-02-14T10:29:34.332Z,5.20
2019-02-14T10:32:01.027Z,4.93
2019-02-14T10:34:27.548Z,4.80
2019-02-14T10:36:54.009Z,4.40
2019-02-14T10:39:20.600Z,4.70
2019-02-14T10:41:47.028Z,18.87
2019-02-14T10:44:13.375Z,5.50
2019-02-14T10:46:40.003Z,5.17
2019-02-14T10:49:06.540Z,4.70
2019-02-14T10:51:32.850Z,4.50
2019-02-14T10:53:59.536Z,4.00
2019-02-14T10:56:26.030Z,4.30
2019-02-14T10:58:52.352Z,4.30
2019-02-14T11:01:19.410Z,3.60
2019-02-14T11:03:46.564Z,3.50
2019-02-14T11:06:13.117Z,2.10
2019-02-14T11:08:39.583Z,2.30
2019-02-14T11:11:06.362Z,2.30
2019-02-14T11:13:32.995Z,2.13
2019-02-14T11:15:59.510Z,2.10
2019-02-14T11:18:26.109Z,2.10
2019-02-14T11:20:52.670Z,2.47
2019-02-14T11:23:19.257Z,2.90
2019-02-14T11:25:45.902Z,2.47
2019-02-14T11:28:12.242Z,5.13
2019-02-14T11:30:38.678Z,3.70
2019-02-14T11:33:05.072Z,2.93
2019-02-14T11:35:31.759Z,2.50
2019-02-14T11:37:58.330Z,2.53
2019-02-14T11:40:24.997Z,2.30
2019-02-14T11:42:51.478Z,2.30
2019-02-14T11:45:20.245Z,2.40
2019-02-14T11:47:46.672Z,2.53
2019-02-14T11:50:13.202Z,2.07
2019-02-14T11:52:39.625Z,2.73
2019-02-14T11:55:08.696Z,2.30
2019-02-14T11:57:35.285Z,2.80
2019-02-14T12:00:06.183Z,2.73
2019-02-14T12:02:32.626Z,2.80
2019-02-14T12:04:59.291Z,2.77
2019-02-14T12:07:25.716Z,2.90
2019-02-14T12:09:52.156Z,2.60
2019-02-14T12:12:18.622Z,2.10
2019-02-14T12:14:45.008Z,2.67
2019-02-14T12:17:11.774Z,2.40
2019-02-14T12:19:38.066Z,2.50
2019-02-14T12:22:04.602Z,2.60
2019-02-14T12:24:31.223Z,2.53
2019-02-14T12:26:57.608Z,2.10
2019-02-14T12:29:24.270Z,2.03
2019-02-14T12:31:50.965Z,2.20
2019-02-14T12:34:17.625Z,2.20
2019-02-14T12:36:44.265Z,2.13
2019-02-14T12:39:11.694Z,2.40
2019-02-14T12:41:38.353Z,2.37
2019-02-14T12:44:04.777Z,2.00
2019-02-14T12:46:31.408Z,2.00
2019-02-14T12:48:57.851Z,2.13
2019-02-14T12:51:24.488Z,2.10
2019-02-14T12:53:51.061Z,2.17
2019-02-14T12:56:17.556Z,2.10
2019-02-14T12:58:44.120Z,2.13
2019-02-14T13:01:10.626Z,2.10
2019-02-14T13:03:37.281Z,1.70
2019-02-14T13:06:03.906Z,1.90
2019-02-14T13:08:30.465Z,2.00
2019-02-14T13:10:57.216Z,2.10
2019-02-14T13:13:23.815Z,1.70
2019-02-14T13:15:50.443Z,1.97
2019-02-14T13:18:16.976Z,2.00
2019-02-14T13:20:43.601Z,2.07
2019-02-14T13:23:10.190Z,1.77
2019-02-14T13:25:36.738Z,2.10
2019-02-14T13:28:03.494Z,1.90
2019-02-14T13:30:30.195Z,2.20
2019-02-14T13:32:56.817Z,1.83
2019-02-14T13:35:23.713Z,2.00
2019-02-14T13:37:50.498Z,2.10
2019-02-14T13:40:16.933Z,2.20
2019-02-14T13:42:43.531Z,2.20
2019-02-14T13:45:16.530Z,2.10
2019-02-14T13:47:43.065Z,2.23
2019-02-14T13:50:11.400Z,2.67
2019-02-14T13:52:38.020Z,2.43
2019-02-14T13:55:09.893Z,2.37
2019-02-14T13:57:36.421Z,2.10
2019-02-14T14:00:11.225Z,1.97
2019-02-14T14:02:37.991Z,2.03
2019-02-14T14:05:04.835Z,2.30
2019-02-14T14:07:40.180Z,2.30
2019-02-14T14:09:59.762Z,2.03
2019-02-14T14:12:26.199Z,2.70
2019-02-14T14:14:52.573Z,2.20
2019-02-14T14:17:19.303Z,2.50
2019-02-14T14:19:45.952Z,2.50
2019-02-14T14:22:12.450Z,2.47
2019-02-14T14:24:39.126Z,2.37
2019-02-14T14:27:05.770Z,2.43
2019-02-14T14:29:32.327Z,2.37
2019-02-14T14:31:58.876Z,2.33
2019-02-14T14:34:25.194Z,2.40
2019-02-14T14:36:51.586Z,2.50
2019-02-14T14:39:18.089Z,2.63
2019-02-14T14:41:44.741Z,2.43
2019-02-14T14:44:13.135Z,2.33
2019-02-14T14:46:40.448Z,2.17
2019-02-14T14:49:07.053Z,2.10
2019-02-14T14:51:33.573Z,2.50
2019-02-14T14:54:00.139Z,2.70
2019-02-14T14:56:26.547Z,2.40
2019-02-14T14:58:53.083Z,2.27
2019-02-14T15:01:19.802Z,2.17
2019-02-14T15:03:46.505Z,2.40
2019-02-14T15:06:13.214Z,2.57
2019-02-14T15:08:39.736Z,2.57
2019-02-14T15:11:06.289Z,2.77
2019-02-14T15:13:32.728Z,2.43
2019-02-14T15:15:59.377Z,2.80
2019-02-14T15:18:25.803Z,2.80
2019-02-14T15:20:52.285Z,2.60
2019-02-14T15:23:18.737Z,2.43
2019-02-14T15:25:45.398Z,2.53
2019-02-14T15:28:11.867Z,3.10
2019-02-14T15:30:38.381Z,2.80
2019-02-14T15:33:05.065Z,5.37
2019-02-14T15:35:31.552Z,7.20
2019-02-14T15:37:58.230Z,6.40
2019-02-14T15:40:24.857Z,5.83
2019-02-14T15:42:51.593Z,5.13
2019-02-14T15:45:18.375Z,4.33
2019-02-14T15:47:44.869Z,3.50
2019-02-14T15:50:11.524Z,3.50
2019-02-14T15:52:38.234Z,3.60
2019-02-14T15:55:06.528Z,3.60
2019-02-14T15:57:32.995Z,3.70
2019-02-14T15:59:59.679Z,2.90
2019-02-14T16:02:26.037Z,3.33
2019-02-14T16:04:53.345Z,3.63
2019-02-14T16:07:21.189Z,3.63
2019-02-14T16:09:48.840Z,4.13
2019-02-14T16:12:17.325Z,4.07
2019-02-14T16:14:44.839Z,4.60
2019-02-14T16:17:13.655Z,4.07
2019-02-14T16:19:39.998Z,3.90
2019-02-14T16:22:06.582Z,4.10
2019-02-14T16:24:33.296Z,4.50
2019-02-14T16:27:01.241Z,4.23
2019-02-14T16:29:29.220Z,4.67
2019-02-14T16:31:55.807Z,4.17
2019-02-14T16:34:22.423Z,4.03
2019-02-14T16:36:49.069Z,4.00
2019-02-14T16:39:15.688Z,4.67
2019-02-14T16:41:42.136Z,4.37
2019-02-14T16:44:08.750Z,4.27
2019-02-14T16:46:35.391Z,4.80
2019-02-14T16:49:02.059Z,5.07
2019-02-14T16:51:28.649Z,5.17
2019-02-14T16:53:55.390Z,5.03
2019-02-14T16:56:22.099Z,6.00
2019-02-14T16:58:48.726Z,6.30
2019-02-14T17:01:15.304Z,5.13
2019-02-14T17:03:41.852Z,5.90
2019-02-14T17:06:08.532Z,5.13
2019-02-14T17:08:35.082Z,5.73
2019-02-14T17:11:01.683Z,7.37
2019-02-14T17:13:28.439Z,6.50
2019-02-14T17:15:55.213Z,5.70
2019-02-14T17:18:21.807Z,5.43
2019-02-14T17:20:48.443Z,5.10
2019-02-14T17:23:14.945Z,5.97
2019-02-14T17:25:41.524Z,5.10
2019-02-14T17:28:08.031Z,6.17
2019-02-14T17:30:34.750Z,5.37
2019-02-14T17:33:01.366Z,5.67
2019-02-14T17:35:28.181Z,7.40
2019-02-14T17:37:54.980Z,6.60
2019-02-14T17:40:21.653Z,7.73
2019-02-14T17:42:48.209Z,7.03
2019-02-14T17:45:14.926Z,7.77
2019-02-14T17:47:41.529Z,7.90
2019-02-14T17:50:08.246Z,7.07
2019-02-14T17:52:34.922Z,6.53
2019-02-14T17:55:02.077Z,6.77
2019-02-14T17:57:28.658Z,6.53
2019-02-14T17:59:55.317Z,6.60
2019-02-14T18:02:21.976Z,7.77
2019-02-14T18:04:48.389Z,6.97
2019-02-14T18:07:14.800Z,8.47
2019-02-14T18:09:41.723Z,7.70
2019-02-14T18:12:08.411Z,9.63
2019-02-14T18:14:35.342Z,8.27
2019-02-14T18:17:01.782Z,7.57
2019-02-14T18:19:28.208Z,7.90
2019-02-14T18:21:54.982Z,8.57
2019-02-14T18:24:21.517Z,7.40
2019-02-14T18:26:47.915Z,7.00
2019-02-14T18:29:14.473Z,6.90
2019-02-14T18:31:41.199Z,6.73
2019-02-14T18:34:08.021Z,7.30
2019-02-14T18:36:34.595Z,8.53
2019-02-14T18:39:01.740Z,7.93
2019-02-14T18:41:28.398Z,6.97
2019-02-14T18:43:55.079Z,8.10
2019-02-14T18:46:21.830Z,7.50
2019-02-14T18:48:48.469Z,7.33
2019-02-14T18:51:15.260Z,7.83
2019-02-14T18:53:41.854Z,7.90
2019-02-14T18:56:08.720Z,7.50
2019-02-14T18:58:35.054Z,8.83
2019-02-14T19:01:01.991Z,7.93
2019-02-14T19:03:28.752Z,8.63
2019-02-14T19:05:55.534Z,8.27
2019-02-14T19:08:22.265Z,7.33
2019-02-14T19:10:49.012Z,7.17
2019-02-14T19:13:15.678Z,6.87
2019-02-14T19:15:42.260Z,7.00
2019-02-14T19:18:08.917Z,9.73
2019-02-14T19:20:35.765Z,9.57
2019-02-14T19:23:02.575Z,9.93
2019-02-14T19:25:30.217Z,10.17
2019-02-14T19:27:56.931Z,10.47
2019-02-14T19:30:23.583Z,9.77
2019-02-14T19:32:50.425Z,10.20
2019-02-14T19:35:22.757Z,11.47
2019-02-14T19:37:45.652Z,10.17
2019-02-14T19:40:12.448Z,10.07
2019-02-14T19:42:39.278Z,10.67
2019-02-14T19:45:08.681Z,10.53
2019-02-14T19:47:35.373Z,9.93
2019-02-14T19:50:03.277Z,10.53
2019-02-14T19:52:29.999Z,10.43
2019-02-14T19:54:56.904Z,10.00
2019-02-14T19:57:23.924Z,41.40
2019-02-14T19:59:50.519Z,81.07
2019-02-14T20:02:17.313Z,28.57
2019-02-14T20:04:44.252Z,12.90
2019-02-14T20:07:11.109Z,11.47
2019-02-14T20:09:38.118Z,10.33
2019-02-14T20:12:05.167Z,10.60
2019-02-14T20:14:31.818Z,11.73
2019-02-14T20:16:58.524Z,10.33
2019-02-14T20:19:25.448Z,10.93
2019-02-14T20:21:52.359Z,11.53
2019-02-14T20:24:19.262Z,11.07
2019-02-14T20:26:45.925Z,11.90
2019-02-14T20:29:12.687Z,11.83
2019-02-14T20:31:39.670Z,10.30
2019-02-14T20:34:06.466Z,10.93
2019-02-14T20:36:33.257Z,10.30
2019-02-14T20:39:00.244Z,10.17
2019-02-14T20:41:27.158Z,11.20
2019-02-14T20:43:53.671Z,10.80
2019-02-14T20:46:20.303Z,11.90
2019-02-14T20:48:47.205Z,11.33
2019-02-14T20:51:13.833Z,10.57
2019-02-14T20:53:40.628Z,10.40
2019-02-14T20:56:07.438Z,10.20
2019-02-14T20:58:34.190Z,11.30
2019-02-14T21:01:01.697Z,11.27
2019-02-14T21:03:28.344Z,10.80
2019-02-14T21:05:55.032Z,11.37
2019-02-14T21:08:21.817Z,11.80
2019-02-14T21:10:48.674Z,11.90
2019-02-14T21:13:15.208Z,12.30
2019-02-14T21:15:41.950Z,12.33
2019-02-14T21:18:08.641Z,11.63
2019-02-14T21:20:35.311Z,12.13
2019-02-14T21:23:02.087Z,12.87
2019-02-14T21:25:29.244Z,28.10
2019-02-14T21:27:55.772Z,74.17
2019-02-14T21:30:22.437Z,25.20
2019-02-14T21:32:49.053Z,15.27
2019-02-14T21:35:15.931Z,13.70
2019-02-14T21:37:42.921Z,13.53
2019-02-14T21:40:14.626Z,12.77
2019-02-14T21:42:41.433Z,11.57
2019-02-14T21:45:13.092Z,11.57
2019-02-14T21:47:39.754Z,11.50
2019-02-14T21:50:12.821Z,11.13
2019-02-14T21:52:39.595Z,11.60
2019-02-14T21:55:11.506Z,11.20
2019-02-14T21:57:38.387Z,10.90
2019-02-14T22:00:18.611Z,11.03
2019-02-14T22:02:45.418Z,10.80
2019-02-14T22:05:12.267Z,11.00
2019-02-14T22:07:38.994Z,11.53
2019-02-14T22:10:09.331Z,11.80
2019-02-14T22:12:40.491Z,11.57
2019-02-14T22:15:12.174Z,12.00
2019-02-14T22:17:38.801Z,12.60
2019-02-14T22:20:08.037Z,11.80
2019-02-14T22:22:34.671Z,11.80
2019-02-14T22:25:01.144Z,11.93
2019-02-14T22:27:27.745Z,11.93
2019-02-14T22:29:54.380Z,13.07
2019-02-14T22:32:21.106Z,11.23
2019-02-14T22:34:47.794Z,12.10
2019-02-14T22:37:14.544Z,11.07
2019-02-14T22:39:41.098Z,11.13
2019-02-14T22:42:07.810Z,10.67
2019-02-14T22:44:34.429Z,11.87
2019-02-14T22:47:01.065Z,10.73
2019-02-14T22:49:27.688Z,11.40
2019-02-14T22:51:54.230Z,11.13
2019-02-14T22:54:20.803Z,11.67
2019-02-14T22:56:47.400Z,11.40
2019-02-14T22:59:13.908Z,12.43
2019-02-14T23:01:40.979Z,10.77
2019-02-14T23:04:07.647Z,11.43
2019-02-14T23:06:34.027Z,10.77
2019-02-14T23:09:00.478Z,10.13
2019-02-14T23:11:27.020Z,10.70
2019-02-14T23:13:53.805Z,9.70
2019-02-14T23:16:20.321Z,9.80
2019-02-14T23:18:46.736Z,10.27
2019-02-14T23:21:13.357Z,9.67
2019-02-14T23:23:39.858Z,9.27
2019-02-14T23:26:06.943Z,10.20
2019-02-14T23:28:33.441Z,10.20
2019-02-14T23:30:59.864Z,9.67
2019-02-14T23:33:26.595Z,10.50
2019-02-14T23:35:53.245Z,9.60
2019-02-14T23:38:19.643Z,9.30
2019-02-14T23:40:46.048Z,9.90
2019-02-14T23:43:12.495Z,10.07
2019-02-14T23:45:39.058Z,10.40
2019-02-14T23:48:05.553Z,10.80
2019-02-14T23:50:32.205Z,10.23
2019-02-14T23:52:58.550Z,9.00
2019-02-14T23:55:25.084Z,9.73
2019-02-14T23:57:51.490Z,9.40
